sensor_id;sensor_type;location;lat;lon;timestamp;P1;durP1;ratioP1;P2;durP2;ratioP2
41514;SDS011;27247;48.020;16.720;2023-04-22T00:01:02;12.13;;;7.67;;
41514;SDS011;27247;48.020;16.720;2023-04-22T00:05:12;12.55;;;8.10;;
41514;SDS011;27247;48.020;16.720;2023-04-22T00:09:23;11.73;;;7.90;;
41514;SDS011;27247;48.020;16.720;2023-04-22T00:13:33;15.77;;;6.97;;
41514;SDS011;27247;48.020;16.720;2023-04-22T00:17:46;12.43;;;7.05;;
41514;SDS011;27247;48.020;16.720;2023-04-22T00:21:57;11.23;;;7.65;;
41514;SDS011;27247;48.020;16.720;2023-04-22T00:26:08;11.40;;;7.60;;
41514;SDS011;27247;48.020;16.720;2023-04-22T00:30:18;11.77;;;7.68;;
41514;SDS011;27247;48.020;16.720;2023-04-22T00:34:29;13.82;;;7.00;;
41514;SDS011;27247;48.020;16.720;2023-04-22T00:38:40;15.32;;;7.13;;
41514;SDS011;27247;48.020;16.720;2023-04-22T00:42:56;14.57;;;7.32;;
41514;SDS011;27247;48.020;16.720;2023-04-22T00:47:08;11.27;;;6.80;;
41514;SDS011;27247;48.020;16.720;2023-04-22T00:51:19;11.88;;;7.63;;
41514;SDS011;27247;48.020;16.720;2023-04-22T00:55:29;18.85;;;7.75;;
41514;SDS011;27247;48.020;16.720;2023-04-22T00:59:40;16.38;;;7.50;;
41514;SDS011;27247;48.020;16.720;2023-04-22T01:03:51;12.18;;;7.05;;
41514;SDS011;27247;48.020;16.720;2023-04-22T01:08:02;11.15;;;8.13;;
41514;SDS011;27247;48.020;16.720;2023-04-22T01:12:13;9.95;;;6.68;;
41514;SDS011;27247;48.020;16.720;2023-04-22T01:16:23;12.50;;;7.93;;
41514;SDS011;27247;48.020;16.720;2023-04-22T01:20:34;12.35;;;7.50;;
41514;SDS011;27247;48.020;16.720;2023-04-22T01:24:45;13.05;;;7.00;;
41514;SDS011;27247;48.020;16.720;2023-04-22T01:28:56;11.77;;;6.70;;
41514;SDS011;27247;48.020;16.720;2023-04-22T01:33:07;9.23;;;5.93;;
41514;SDS011;27247;48.020;16.720;2023-04-22T01:37:18;10.38;;;6.20;;
41514;SDS011;27247;48.020;16.720;2023-04-22T01:41:29;9.77;;;6.68;;
41514;SDS011;27247;48.020;16.720;2023-04-22T01:45:40;11.30;;;6.20;;
41514;SDS011;27247;48.020;16.720;2023-04-22T01:49:51;14.00;;;7.07;;
41514;SDS011;27247;48.020;16.720;2023-04-22T01:54:01;10.45;;;6.82;;
41514;SDS011;27247;48.020;16.720;2023-04-22T01:58:13;13.75;;;7.90;;
41514;SDS011;27247;48.020;16.720;2023-04-22T02:02:23;12.70;;;7.72;;
41514;SDS011;27247;48.020;16.720;2023-04-22T02:06:33;10.07;;;7.22;;
41514;SDS011;27247;48.020;16.720;2023-04-22T02:10:44;8.32;;;6.57;;
41514;SDS011;27247;48.020;16.720;2023-04-22T02:14:55;14.82;;;6.53;;
41514;SDS011;27247;48.020;16.720;2023-04-22T02:19:05;10.20;;;6.00;;
41514;SDS011;27247;48.020;16.720;2023-04-22T02:23:15;11.48;;;6.80;;
41514;SDS011;27247;48.020;16.720;2023-04-22T02:27:26;8.25;;;6.32;;
41514;SDS011;27247;48.020;16.720;2023-04-22T02:31:36;10.82;;;6.50;;
41514;SDS011;27247;48.020;16.720;2023-04-22T02:35:47;10.15;;;6.68;;
41514;SDS011;27247;48.020;16.720;2023-04-22T02:39:57;10.43;;;6.22;;
41514;SDS011;27247;48.020;16.720;2023-04-22T02:44:08;12.00;;;6.75;;
41514;SDS011;27247;48.020;16.720;2023-04-22T02:48:18;10.70;;;6.80;;
41514;SDS011;27247;48.020;16.720;2023-04-22T02:52:28;11.40;;;7.70;;
41514;SDS011;27247;48.020;16.720;2023-04-22T02:56:39;12.68;;;7.50;;
41514;SDS011;27247;48.020;16.720;2023-04-22T03:00:49;17.55;;;8.00;;
41514;SDS011;27247;48.020;16.720;2023-04-22T03:04:59;13.43;;;7.47;;
41514;SDS011;27247;48.020;16.720;2023-04-22T03:09:10;18.90;;;7.97;;
41514;SDS011;27247;48.020;16.720;2023-04-22T03:13:20;11.95;;;7.25;;
41514;SDS011;27247;48.020;16.720;2023-04-22T03:17:31;14.15;;;8.45;;
41514;SDS011;27247;48.020;16.720;2023-04-22T03:21:41;11.65;;;6.95;;
41514;SDS011;27247;48.020;16.720;2023-04-22T03:25:51;12.47;;;8.43;;
41514;SDS011;27247;48.020;16.720;2023-04-22T03:30:02;15.60;;;8.73;;
41514;SDS011;27247;48.020;16.720;2023-04-22T03:34:13;19.83;;;9.23;;
41514;SDS011;27247;48.020;16.720;2023-04-22T03:38:24;12.23;;;8.00;;
41514;SDS011;27247;48.020;16.720;2023-04-22T03:42:34;16.33;;;10.25;;
41514;SDS011;27247;48.020;16.720;2023-04-22T03:46:45;19.02;;;11.88;;
41514;SDS011;27247;48.020;16.720;2023-04-22T03:50:55;18.52;;;11.45;;
41514;SDS011;27247;48.020;16.720;2023-04-22T03:55:07;14.02;;;10.00;;
41514;SDS011;27247;48.020;16.720;2023-04-22T03:59:18;19.42;;;10.90;;
41514;SDS011;27247;48.020;16.720;2023-04-22T04:03:28;14.57;;;9.25;;
41514;SDS011;27247;48.020;16.720;2023-04-22T04:07:38;11.40;;;8.10;;
41514;SDS011;27247;48.020;16.720;2023-04-22T04:11:49;18.50;;;8.63;;
41514;SDS011;27247;48.020;16.720;2023-04-22T04:15:59;14.60;;;9.05;;
41514;SDS011;27247;48.020;16.720;2023-04-22T04:20:10;13.30;;;8.48;;
41514;SDS011;27247;48.020;16.720;2023-04-22T04:24:21;13.50;;;9.18;;
41514;SDS011;27247;48.020;16.720;2023-04-22T04:28:31;16.00;;;8.27;;
41514;SDS011;27247;48.020;16.720;2023-04-22T04:32:43;16.00;;;8.38;;
41514;SDS011;27247;48.020;16.720;2023-04-22T04:36:54;16.13;;;9.30;;
41514;SDS011;27247;48.020;16.720;2023-04-22T04:41:05;13.80;;;8.63;;
41514;SDS011;27247;48.020;16.720;2023-04-22T04:45:18;17.20;;;9.50;;
41514;SDS011;27247;48.020;16.720;2023-04-22T04:49:28;14.75;;;9.95;;
41514;SDS011;27247;48.020;16.720;2023-04-22T04:53:39;17.10;;;11.90;;
41514;SDS011;27247;48.020;16.720;2023-04-22T04:57:49;18.17;;;11.95;;
41514;SDS011;27247;48.020;16.720;2023-04-22T05:02:00;27.33;;;14.20;;
41514;SDS011;27247;48.020;16.720;2023-04-22T05:06:10;21.20;;;14.02;;
41514;SDS011;27247;48.020;16.720;2023-04-22T05:10:21;20.60;;;12.70;;
41514;SDS011;27247;48.020;16.720;2023-04-22T05:14:31;22.15;;;14.55;;
41514;SDS011;27247;48.020;16.720;2023-04-22T05:18:41;26.50;;;15.90;;
41514;SDS011;27247;48.020;16.720;2023-04-22T05:22:51;23.40;;;14.67;;
41514;SDS011;27247;48.020;16.720;2023-04-22T05:27:02;24.52;;;15.35;;
41514;SDS011;27247;48.020;16.720;2023-04-22T05:31:12;28.02;;;17.10;;
41514;SDS011;27247;48.020;16.720;2023-04-22T05:35:23;26.48;;;17.05;;
41514;SDS011;27247;48.020;16.720;2023-04-22T05:39:33;32.70;;;19.13;;
41514;SDS011;27247;48.020;16.720;2023-04-22T05:43:44;36.25;;;21.17;;
41514;SDS011;27247;48.020;16.720;2023-04-22T05:47:54;34.75;;;21.83;;
41514;SDS011;27247;48.020;16.720;2023-04-22T05:52:04;29.52;;;21.05;;
41514;SDS011;27247;48.020;16.720;2023-04-22T05:56:15;38.83;;;21.65;;
41514;SDS011;27247;48.020;16.720;2023-04-22T06:00:26;35.95;;;21.33;;
41514;SDS011;27247;48.020;16.720;2023-04-22T06:04:36;30.13;;;19.40;;
41514;SDS011;27247;48.020;16.720;2023-04-22T06:08:47;36.17;;;23.30;;
41514;SDS011;27247;48.020;16.720;2023-04-22T06:12:57;37.33;;;20.85;;
41514;SDS011;27247;48.020;16.720;2023-04-22T06:17:07;29.67;;;20.02;;
41514;SDS011;27247;48.020;16.720;2023-04-22T06:21:18;27.27;;;18.75;;
41514;SDS011;27247;48.020;16.720;2023-04-22T06:25:29;30.42;;;18.83;;
41514;SDS011;27247;48.020;16.720;2023-04-22T06:29:40;33.38;;;19.25;;
41514;SDS011;27247;48.020;16.720;2023-04-22T06:33:51;30.17;;;19.80;;
41514;SDS011;27247;48.020;16.720;2023-04-22T06:38:01;33.00;;;20.00;;
41514;SDS011;27247;48.020;16.720;2023-04-22T06:42:11;27.52;;;19.00;;
41514;SDS011;27247;48.020;16.720;2023-04-22T06:46:22;26.98;;;17.58;;
41514;SDS011;27247;48.020;16.720;2023-04-22T06:50:32;23.92;;;16.13;;
41514;SDS011;27247;48.020;16.720;2023-04-22T06:54:43;27.40;;;16.58;;
41514;SDS011;27247;48.020;16.720;2023-04-22T06:58:53;26.70;;;15.80;;
41514;SDS011;27247;48.020;16.720;2023-04-22T07:03:04;21.10;;;15.23;;
41514;SDS011;27247;48.020;16.720;2023-04-22T07:07:14;17.43;;;11.87;;
41514;SDS011;27247;48.020;16.720;2023-04-22T07:11:25;26.35;;;14.60;;
41514;SDS011;27247;48.020;16.720;2023-04-22T07:15:36;26.23;;;13.65;;
41514;SDS011;27247;48.020;16.720;2023-04-22T07:19:47;18.93;;;13.17;;
41514;SDS011;27247;48.020;16.720;2023-04-22T07:23:58;28.80;;;13.48;;
41514;SDS011;27247;48.020;16.720;2023-04-22T07:28:08;21.42;;;13.18;;
41514;SDS011;27247;48.020;16.720;2023-04-22T07:32:19;22.73;;;10.23;;
41514;SDS011;27247;48.020;16.720;2023-04-22T07:36:29;20.90;;;10.57;;
41514;SDS011;27247;48.020;16.720;2023-04-22T07:40:41;17.20;;;10.13;;
41514;SDS011;27247;48.020;16.720;2023-04-22T07:44:52;18.08;;;10.98;;
41514;SDS011;27247;48.020;16.720;2023-04-22T07:49:03;23.30;;;11.43;;
41514;SDS011;27247;48.020;16.720;2023-04-22T07:53:13;19.17;;;11.53;;
41514;SDS011;27247;48.020;16.720;2023-04-22T07:57:24;21.17;;;11.63;;
41514;SDS011;27247;48.020;16.720;2023-04-22T08:01:35;24.88;;;11.95;;
41514;SDS011;27247;48.020;16.720;2023-04-22T08:05:45;14.97;;;9.50;;
41514;SDS011;27247;48.020;16.720;2023-04-22T08:09:56;17.08;;;9.57;;
41514;SDS011;27247;48.020;16.720;2023-04-22T08:14:06;17.80;;;9.20;;
41514;SDS011;27247;48.020;16.720;2023-04-22T08:18:16;16.70;;;9.03;;
41514;SDS011;27247;48.020;16.720;2023-04-22T08:22:27;15.35;;;8.50;;
41514;SDS011;27247;48.020;16.720;2023-04-22T08:26:37;19.93;;;7.97;;
41514;SDS011;27247;48.020;16.720;2023-04-22T08:30:48;17.95;;;7.80;;
41514;SDS011;27247;48.020;16.720;2023-04-22T08:34:59;22.88;;;7.55;;
41514;SDS011;27247;48.020;16.720;2023-04-22T08:39:09;16.93;;;6.67;;
41514;SDS011;27247;48.020;16.720;2023-04-22T08:43:20;16.15;;;6.47;;
41514;SDS011;27247;48.020;16.720;2023-04-22T08:47:31;18.45;;;6.63;;
41514;SDS011;27247;48.020;16.720;2023-04-22T08:51:43;21.60;;;7.50;;
41514;SDS011;27247;48.020;16.720;2023-04-22T08:55:55;17.83;;;7.68;;
41514;SDS011;27247;48.020;16.720;2023-04-22T09:00:05;13.70;;;6.20;;
41514;SDS011;27247;48.020;16.720;2023-04-22T09:04:18;13.00;;;6.22;;
41514;SDS011;27247;48.020;16.720;2023-04-22T09:08:28;11.43;;;5.43;;
41514;SDS011;27247;48.020;16.720;2023-04-22T09:12:39;23.20;;;6.72;;
41514;SDS011;27247;48.020;16.720;2023-04-22T09:16:50;12.60;;;5.03;;
41514;SDS011;27247;48.020;16.720;2023-04-22T09:21:01;18.02;;;5.53;;
41514;SDS011;27247;48.020;16.720;2023-04-22T09:25:19;13.35;;;5.50;;
41514;SDS011;27247;48.020;16.720;2023-04-22T09:29:31;13.00;;;5.20;;
41514;SDS011;27247;48.020;16.720;2023-04-22T09:33:45;14.33;;;4.60;;
41514;SDS011;27247;48.020;16.720;2023-04-22T09:38:07;11.77;;;5.47;;
41514;SDS011;27247;48.020;16.720;2023-04-22T09:42:20;21.50;;;4.80;;
41514;SDS011;27247;48.020;16.720;2023-04-22T09:46:31;16.55;;;4.10;;
41514;SDS011;27247;48.020;16.720;2023-04-22T09:50:43;8.70;;;3.72;;
41514;SDS011;27247;48.020;16.720;2023-04-22T09:54:58;13.60;;;4.13;;
41514;SDS011;27247;48.020;16.720;2023-04-22T09:59:08;17.10;;;3.93;;
41514;SDS011;27247;48.020;16.720;2023-04-22T10:03:19;10.38;;;3.60;;
41514;SDS011;27247;48.020;16.720;2023-04-22T10:07:29;16.55;;;4.88;;
41514;SDS011;27247;48.020;16.720;2023-04-22T10:11:41;13.93;;;4.50;;
41514;SDS011;27247;48.020;16.720;2023-04-22T10:15:52;12.60;;;4.40;;
41514;SDS011;27247;48.020;16.720;2023-04-22T10:20:06;11.52;;;3.42;;
41514;SDS011;27247;48.020;16.720;2023-04-22T10:24:24;11.52;;;3.97;;
41514;SDS011;27247;48.020;16.720;2023-04-22T10:28:40;17.52;;;4.63;;
41514;SDS011;27247;48.020;16.720;2023-04-22T10:32:52;10.32;;;5.10;;
41514;SDS011;27247;48.020;16.720;2023-04-22T10:37:07;11.20;;;4.40;;
41514;SDS011;27247;48.020;16.720;2023-04-22T10:41:21;14.10;;;4.85;;
41514;SDS011;27247;48.020;16.720;2023-04-22T10:45:35;14.43;;;4.68;;
41514;SDS011;27247;48.020;16.720;2023-04-22T10:49:46;14.63;;;4.90;;
41514;SDS011;27247;48.020;16.720;2023-04-22T10:54:00;13.15;;;4.25;;
41514;SDS011;27247;48.020;16.720;2023-04-22T10:58:18;8.13;;;3.97;;
41514;SDS011;27247;48.020;16.720;2023-04-22T11:02:30;10.60;;;4.55;;
41514;SDS011;27247;48.020;16.720;2023-04-22T11:06:40;11.23;;;4.10;;
41514;SDS011;27247;48.020;16.720;2023-04-22T11:10:50;8.27;;;4.57;;
41514;SDS011;27247;48.020;16.720;2023-04-22T11:15:15;8.48;;;3.72;;
41514;SDS011;27247;48.020;16.720;2023-04-22T11:19:31;13.40;;;4.28;;
41514;SDS011;27247;48.020;16.720;2023-04-22T11:23:48;10.80;;;4.47;;
41514;SDS011;27247;48.020;16.720;2023-04-22T11:28:01;12.23;;;4.55;;
41514;SDS011;27247;48.020;16.720;2023-04-22T11:32:12;6.78;;;4.18;;
41514;SDS011;27247;48.020;16.720;2023-04-22T11:36:23;5.90;;;4.20;;
41514;SDS011;27247;48.020;16.720;2023-04-22T11:40:37;11.60;;;3.97;;
41514;SDS011;27247;48.020;16.720;2023-04-22T11:44:50;12.23;;;3.72;;
41514;SDS011;27247;48.020;16.720;2023-04-22T11:49:11;7.85;;;3.28;;
41514;SDS011;27247;48.020;16.720;2023-04-22T11:53:22;6.75;;;3.45;;
41514;SDS011;27247;48.020;16.720;2023-04-22T11:57:34;8.13;;;3.63;;
41514;SDS011;27247;48.020;16.720;2023-04-22T12:01:46;7.78;;;3.30;;
41514;SDS011;27247;48.020;16.720;2023-04-22T12:05:57;8.43;;;4.10;;
41514;SDS011;27247;48.020;16.720;2023-04-22T12:10:10;9.73;;;4.32;;
41514;SDS011;27247;48.020;16.720;2023-04-22T12:14:20;12.63;;;2.93;;
41514;SDS011;27247;48.020;16.720;2023-04-22T12:18:34;7.07;;;3.50;;
41514;SDS011;27247;48.020;16.720;2023-04-22T12:22:45;5.95;;;4.00;;
41514;SDS011;27247;48.020;16.720;2023-04-22T12:26:55;11.32;;;3.60;;
41514;SDS011;27247;48.020;16.720;2023-04-22T12:31:06;9.00;;;3.40;;
41514;SDS011;27247;48.020;16.720;2023-04-22T12:35:17;10.57;;;3.45;;
41514;SDS011;27247;48.020;16.720;2023-04-22T12:39:27;8.68;;;3.72;;
41514;SDS011;27247;48.020;16.720;2023-04-22T12:43:37;8.37;;;3.17;;
41514;SDS011;27247;48.020;16.720;2023-04-22T12:47:48;6.30;;;3.40;;
41514;SDS011;27247;48.020;16.720;2023-04-22T12:52:02;9.50;;;3.65;;
41514;SDS011;27247;48.020;16.720;2023-04-22T12:56:12;7.28;;;3.58;;
41514;SDS011;27247;48.020;16.720;2023-04-22T13:00:23;7.47;;;3.47;;
41514;SDS011;27247;48.020;16.720;2023-04-22T13:04:34;10.15;;;4.07;;
41514;SDS011;27247;48.020;16.720;2023-04-22T13:08:44;7.68;;;3.45;;
41514;SDS011;27247;48.020;16.720;2023-04-22T13:12:55;10.80;;;4.60;;
41514;SDS011;27247;48.020;16.720;2023-04-22T13:17:06;10.63;;;3.38;;
41514;SDS011;27247;48.020;16.720;2023-04-22T13:21:17;7.57;;;3.70;;
41514;SDS011;27247;48.020;16.720;2023-04-22T13:25:27;7.43;;;3.57;;
41514;SDS011;27247;48.020;16.720;2023-04-22T13:29:37;8.93;;;4.07;;
41514;SDS011;27247;48.020;16.720;2023-04-22T13:33:49;8.70;;;3.60;;
41514;SDS011;27247;48.020;16.720;2023-04-22T13:37:59;7.20;;;3.93;;
41514;SDS011;27247;48.020;16.720;2023-04-22T13:42:10;9.35;;;4.20;;
41514;SDS011;27247;48.020;16.720;2023-04-22T13:46:20;10.63;;;3.90;;
41514;SDS011;27247;48.020;16.720;2023-04-22T13:50:31;6.22;;;3.10;;
41514;SDS011;27247;48.020;16.720;2023-04-22T13:54:43;8.18;;;3.83;;
41514;SDS011;27247;48.020;16.720;2023-04-22T13:58:53;4.93;;;3.10;;
41514;SDS011;27247;48.020;16.720;2023-04-22T14:03:04;8.90;;;3.70;;
41514;SDS011;27247;48.020;16.720;2023-04-22T14:07:14;8.77;;;3.33;;
41514;SDS011;27247;48.020;16.720;2023-04-22T14:11:24;5.55;;;3.33;;
41514;SDS011;27247;48.020;16.720;2023-04-22T14:15:35;7.47;;;3.58;;
41514;SDS011;27247;48.020;16.720;2023-04-22T14:19:47;14.70;;;3.83;;
41514;SDS011;27247;48.020;16.720;2023-04-22T14:23:58;4.63;;;2.88;;
41514;SDS011;27247;48.020;16.720;2023-04-22T14:28:08;8.38;;;3.28;;
41514;SDS011;27247;48.020;16.720;2023-04-22T14:32:19;13.47;;;4.07;;
41514;SDS011;27247;48.020;16.720;2023-04-22T14:36:30;8.48;;;3.40;;
41514;SDS011;27247;48.020;16.720;2023-04-22T14:40:41;8.55;;;4.03;;
41514;SDS011;27247;48.020;16.720;2023-04-22T14:44:51;11.15;;;3.65;;
41514;SDS011;27247;48.020;16.720;2023-04-22T14:49:02;10.00;;;3.30;;
41514;SDS011;27247;48.020;16.720;2023-04-22T14:53:12;8.87;;;3.60;;
41514;SDS011;27247;48.020;16.720;2023-04-22T14:57:22;7.97;;;3.40;;
41514;SDS011;27247;48.020;16.720;2023-04-22T15:01:33;8.47;;;3.47;;
41514;SDS011;27247;48.020;16.720;2023-04-22T15:05:43;13.10;;;3.50;;
41514;SDS011;27247;48.020;16.720;2023-04-22T15:09:58;8.77;;;3.50;;
41514;SDS011;27247;48.020;16.720;2023-04-22T15:14:08;6.18;;;3.63;;
41514;SDS011;27247;48.020;16.720;2023-04-22T15:18:18;6.57;;;3.03;;
41514;SDS011;27247;48.020;16.720;2023-04-22T15:22:29;11.52;;;3.72;;
41514;SDS011;27247;48.020;16.720;2023-04-22T15:26:40;13.13;;;3.53;;
41514;SDS011;27247;48.020;16.720;2023-04-22T15:30:51;9.48;;;3.45;;
41514;SDS011;27247;48.020;16.720;2023-04-22T15:35:01;11.63;;;3.72;;
41514;SDS011;27247;48.020;16.720;2023-04-22T15:39:13;14.60;;;2.95;;
41514;SDS011;27247;48.020;16.720;2023-04-22T15:43:23;6.15;;;3.22;;
41514;SDS011;27247;48.020;16.720;2023-04-22T15:47:35;6.22;;;3.63;;
41514;SDS011;27247;48.020;16.720;2023-04-22T15:51:46;8.93;;;3.33;;
41514;SDS011;27247;48.020;16.720;2023-04-22T15:55:56;5.60;;;3.40;;
41514;SDS011;27247;48.020;16.720;2023-04-22T16:00:08;9.48;;;3.55;;
41514;SDS011;27247;48.020;16.720;2023-04-22T16:04:19;6.50;;;3.53;;
41514;SDS011;27247;48.020;16.720;2023-04-22T16:08:30;3.88;;;3.38;;
41514;SDS011;27247;48.020;16.720;2023-04-22T16:12:40;11.07;;;3.53;;
41514;SDS011;27247;48.020;16.720;2023-04-22T16:16:51;8.88;;;3.92;;
41514;SDS011;27247;48.020;16.720;2023-04-22T16:21:02;5.40;;;3.40;;
41514;SDS011;27247;48.020;16.720;2023-04-22T16:25:13;9.27;;;3.42;;
41514;SDS011;27247;48.020;16.720;2023-04-22T16:29:23;7.22;;;2.85;;
41514;SDS011;27247;48.020;16.720;2023-04-22T16:33:34;9.43;;;3.05;;
41514;SDS011;27247;48.020;16.720;2023-04-22T16:37:46;9.98;;;3.45;;
41514;SDS011;27247;48.020;16.720;2023-04-22T16:41:57;8.63;;;3.53;;
41514;SDS011;27247;48.020;16.720;2023-04-22T16:46:07;8.48;;;3.55;;
41514;SDS011;27247;48.020;16.720;2023-04-22T16:50:18;11.23;;;3.63;;
41514;SDS011;27247;48.020;16.720;2023-04-22T16:54:29;11.68;;;4.10;;
41514;SDS011;27247;48.020;16.720;2023-04-22T16:58:39;6.80;;;4.07;;
41514;SDS011;27247;48.020;16.720;2023-04-22T17:02:49;10.07;;;4.13;;
41514;SDS011;27247;48.020;16.720;2023-04-22T17:07:00;10.13;;;3.77;;
41514;SDS011;27247;48.020;16.720;2023-04-22T17:11:10;8.10;;;4.50;;
41514;SDS011;27247;48.020;16.720;2023-04-22T17:15:20;16.13;;;4.55;;
41514;SDS011;27247;48.020;16.720;2023-04-22T17:19:31;9.43;;;3.93;;
41514;SDS011;27247;48.020;16.720;2023-04-22T17:23:41;12.40;;;4.77;;
41514;SDS011;27247;48.020;16.720;2023-04-22T17:27:51;14.27;;;4.93;;
41514;SDS011;27247;48.020;16.720;2023-04-22T17:32:02;9.20;;;4.50;;
41514;SDS011;27247;48.020;16.720;2023-04-22T17:36:12;10.37;;;4.73;;
41514;SDS011;27247;48.020;16.720;2023-04-22T17:40:22;8.37;;;4.80;;
41514;SDS011;27247;48.020;16.720;2023-04-22T17:44:33;9.25;;;4.93;;
41514;SDS011;27247;48.020;16.720;2023-04-22T17:48:43;10.57;;;4.60;;
41514;SDS011;27247;48.020;16.720;2023-04-22T17:52:55;10.75;;;3.90;;
41514;SDS011;27247;48.020;16.720;2023-04-22T17:57:06;6.73;;;4.40;;
41514;SDS011;27247;48.020;16.720;2023-04-22T18:01:16;5.90;;;4.47;;
41514;SDS011;27247;48.020;16.720;2023-04-22T18:05:26;12.13;;;4.35;;
41514;SDS011;27247;48.020;16.720;2023-04-22T18:09:37;8.20;;;4.07;;
41514;SDS011;27247;48.020;16.720;2023-04-22T18:13:47;9.98;;;5.20;;
41514;SDS011;27247;48.020;16.720;2023-04-22T18:17:58;10.10;;;4.57;;
41514;SDS011;27247;48.020;16.720;2023-04-22T18:22:08;9.43;;;3.93;;
41514;SDS011;27247;48.020;16.720;2023-04-22T18:26:18;11.52;;;4.80;;
41514;SDS011;27247;48.020;16.720;2023-04-22T18:30:29;11.75;;;4.97;;
41514;SDS011;27247;48.020;16.720;2023-04-22T18:34:40;12.48;;;4.85;;
41514;SDS011;27247;48.020;16.720;2023-04-22T18:38:50;10.20;;;4.32;;
41514;SDS011;27247;48.020;16.720;2023-04-22T18:43:01;16.43;;;4.97;;
41514;SDS011;27247;48.020;16.720;2023-04-22T18:47:11;10.40;;;4.72;;
41514;SDS011;27247;48.020;16.720;2023-04-22T18:51:22;9.10;;;4.53;;
41514;SDS011;27247;48.020;16.720;2023-04-22T18:55:32;12.90;;;4.78;;
41514;SDS011;27247;48.020;16.720;2023-04-22T18:59:42;8.82;;;4.85;;
41514;SDS011;27247;48.020;16.720;2023-04-22T19:03:53;9.43;;;4.85;;
41514;SDS011;27247;48.020;16.720;2023-04-22T19:08:03;9.07;;;4.50;;
41514;SDS011;27247;48.020;16.720;2023-04-22T19:12:14;12.75;;;4.90;;
41514;SDS011;27247;48.020;16.720;2023-04-22T19:16:25;9.73;;;5.28;;
41514;SDS011;27247;48.020;16.720;2023-04-22T19:20:36;11.45;;;4.30;;
41514;SDS011;27247;48.020;16.720;2023-04-22T19:24:47;10.10;;;4.72;;
41514;SDS011;27247;48.020;16.720;2023-04-22T19:28:57;11.02;;;5.40;;
41514;SDS011;27247;48.020;16.720;2023-04-22T19:33:07;10.07;;;5.32;;
41514;SDS011;27247;48.020;16.720;2023-04-22T19:37:18;11.00;;;5.67;;
41514;SDS011;27247;48.020;16.720;2023-04-22T19:41:29;8.25;;;4.78;;
41514;SDS011;27247;48.020;16.720;2023-04-22T19:45:40;10.68;;;4.93;;
41514;SDS011;27247;48.020;16.720;2023-04-22T19:49:50;9.60;;;4.63;;
41514;SDS011;27247;48.020;16.720;2023-04-22T19:54:01;10.00;;;5.28;;
41514;SDS011;27247;48.020;16.720;2023-04-22T19:58:12;13.85;;;5.10;;
41514;SDS011;27247;48.020;16.720;2023-04-22T20:02:23;14.30;;;5.07;;
41514;SDS011;27247;48.020;16.720;2023-04-22T20:06:34;8.15;;;4.75;;
41514;SDS011;27247;48.020;16.720;2023-04-22T20:10:46;12.02;;;5.90;;
41514;SDS011;27247;48.020;16.720;2023-04-22T20:14:58;13.00;;;5.10;;
41514;SDS011;27247;48.020;16.720;2023-04-22T20:19:09;18.83;;;5.70;;
41514;SDS011;27247;48.020;16.720;2023-04-22T20:23:20;11.55;;;5.97;;
41514;SDS011;27247;48.020;16.720;2023-04-22T20:27:33;8.35;;;5.75;;
41514;SDS011;27247;48.020;16.720;2023-04-22T20:31:43;10.52;;;5.65;;
41514;SDS011;27247;48.020;16.720;2023-04-22T20:35:54;16.70;;;6.32;;
41514;SDS011;27247;48.020;16.720;2023-04-22T20:40:05;14.75;;;5.63;;
41514;SDS011;27247;48.020;16.720;2023-04-22T20:44:19;15.93;;;5.55;;
41514;SDS011;27247;48.020;16.720;2023-04-22T20:48:30;12.53;;;5.93;;
41514;SDS011;27247;48.020;16.720;2023-04-22T20:52:40;14.43;;;6.57;;
41514;SDS011;27247;48.020;16.720;2023-04-22T20:56:51;10.70;;;6.30;;
41514;SDS011;27247;48.020;16.720;2023-04-22T21:01:01;9.18;;;5.75;;
41514;SDS011;27247;48.020;16.720;2023-04-22T21:05:12;10.32;;;6.28;;
41514;SDS011;27247;48.020;16.720;2023-04-22T21:09:23;11.98;;;6.63;;
41514;SDS011;27247;48.020;16.720;2023-04-22T21:13:36;9.85;;;6.28;;
41514;SDS011;27247;48.020;16.720;2023-04-22T21:17:47;11.70;;;6.30;;
41514;SDS011;27247;48.020;16.720;2023-04-22T21:22:03;13.60;;;6.38;;
41514;SDS011;27247;48.020;16.720;2023-04-22T21:26:14;16.08;;;6.93;;
41514;SDS011;27247;48.020;16.720;2023-04-22T21:30:26;10.57;;;6.00;;
41514;SDS011;27247;48.020;16.720;2023-04-22T21:34:37;12.02;;;7.03;;
41514;SDS011;27247;48.020;16.720;2023-04-22T21:38:48;13.67;;;6.80;;
41514;SDS011;27247;48.020;16.720;2023-04-22T21:42:59;13.57;;;6.57;;
41514;SDS011;27247;48.020;16.720;2023-04-22T21:47:09;9.13;;;6.57;;
41514;SDS011;27247;48.020;16.720;2023-04-22T21:51:20;9.48;;;6.25;;
41514;SDS011;27247;48.020;16.720;2023-04-22T21:55:30;16.10;;;6.68;;
41514;SDS011;27247;48.020;16.720;2023-04-22T21:59:41;12.32;;;7.38;;
41514;SDS011;27247;48.020;16.720;2023-04-22T22:03:51;11.27;;;6.87;;
41514;SDS011;27247;48.020;16.720;2023-04-22T22:08:01;11.38;;;7.10;;
41514;SDS011;27247;48.020;16.720;2023-04-22T22:12:12;10.35;;;6.88;;
41514;SDS011;27247;48.020;16.720;2023-04-22T22:16:24;14.00;;;7.70;;
41514;SDS011;27247;48.020;16.720;2023-04-22T22:20:34;15.23;;;7.30;;
41514;SDS011;27247;48.020;16.720;2023-04-22T22:24:45;12.00;;;7.13;;
41514;SDS011;27247;48.020;16.720;2023-04-22T22:28:56;13.70;;;7.40;;
41514;SDS011;27247;48.020;16.720;2023-04-22T22:33:06;13.07;;;7.70;;
41514;SDS011;27247;48.020;16.720;2023-04-22T22:37:16;14.60;;;8.20;;
41514;SDS011;27247;48.020;16.720;2023-04-22T22:41:26;12.27;;;7.32;;
41514;SDS011;27247;48.020;16.720;2023-04-22T22:45:37;13.38;;;7.57;;
41514;SDS011;27247;48.020;16.720;2023-04-22T22:49:48;11.98;;;7.78;;
41514;SDS011;27247;48.020;16.720;2023-04-22T22:53:58;12.57;;;7.35;;
41514;SDS011;27247;48.020;16.720;2023-04-22T22:58:09;15.57;;;7.93;;
41514;SDS011;27247;48.020;16.720;2023-04-22T23:02:19;16.80;;;7.97;;
41514;SDS011;27247;48.020;16.720;2023-04-22T23:06:29;13.15;;;7.43;;
41514;SDS011;27247;48.020;16.720;2023-04-22T23:10:40;17.42;;;7.78;;
41514;SDS011;27247;48.020;16.720;2023-04-22T23:14:51;12.03;;;7.67;;
41514;SDS011;27247;48.020;16.720;2023-04-22T23:19:01;14.43;;;8.40;;
41514;SDS011;27247;48.020;16.720;2023-04-22T23:23:14;14.18;;;7.47;;
41514;SDS011;27247;48.020;16.720;2023-04-22T23:27:25;13.95;;;7.90;;
41514;SDS011;27247;48.020;16.720;2023-04-22T23:31:35;14.05;;;9.05;;
41514;SDS011;27247;48.020;16.720;2023-04-22T23:35:48;15.05;;;7.85;;
41514;SDS011;27247;48.020;16.720;2023-04-22T23:40:01;13.98;;;7.85;;
41514;SDS011;27247;48.020;16.720;2023-04-22T23:44:11;18.75;;;10.13;;
41514;SDS011;27247;48.020;16.720;2023-04-22T23:48:22;14.63;;;8.67;;
41514;SDS011;27247;48.020;16.720;2023-04-22T23:52:32;14.88;;;7.95;;
41514;SDS011;27247;48.020;16.720;2023-04-22T23:56:49;14.63;;;8.55;;
